createdAt,value
2023-12-02T00:01:23.087Z,22.37
2023-12-02T00:03:52.425Z,28.80
2023-12-02T00:06:20.548Z,31.37
2023-12-02T00:08:48.588Z,19.13
2023-12-02T00:11:16.824Z,24.80
2023-12-02T00:13:44.839Z,21.70
2023-12-02T00:16:13.004Z,20.83
2023-12-02T00:18:42.507Z,22.03
2023-12-02T00:21:10.685Z,23.10
2023-12-02T00:23:38.836Z,27.23
2023-12-02T00:26:09.164Z,27.57
2023-12-02T00:28:37.656Z,22.00
2023-12-02T00:31:06.176Z,22.17
2023-12-02T00:33:34.373Z,28.03
2023-12-02T00:36:03.912Z,21.87
2023-12-02T00:38:32.347Z,23.43
2023-12-02T00:41:00.496Z,19.93
2023-12-02T00:43:28.538Z,18.63
2023-12-02T00:45:56.557Z,18.37
2023-12-02T00:48:25.342Z,17.40
2023-12-02T00:50:53.608Z,23.73
2023-12-02T00:53:23.172Z,24.97
2023-12-02T00:55:51.216Z,21.10
2023-12-02T00:58:24.677Z,21.43
2023-12-02T01:00:59.650Z,20.67
2023-12-02T01:03:27.715Z,17.50
2023-12-02T01:05:56.248Z,15.90
2023-12-02T01:08:25.806Z,17.23
2023-12-02T01:10:53.884Z,15.17
2023-12-02T01:13:21.926Z,18.93
2023-12-02T01:15:49.916Z,15.50
2023-12-02T01:18:18.196Z,12.43
2023-12-02T01:20:46.407Z,13.80
2023-12-02T01:23:14.447Z,21.37
2023-12-02T01:25:44.003Z,15.77
2023-12-02T01:28:12.047Z,18.70
2023-12-02T01:30:40.135Z,16.93
2023-12-02T01:33:08.292Z,15.67
2023-12-02T01:35:36.377Z,11.37
2023-12-02T01:38:04.629Z,14.77
2023-12-02T01:40:32.617Z,13.30
2023-12-02T01:43:04.946Z,16.27
2023-12-02T01:45:33.085Z,13.73
2023-12-02T01:48:01.354Z,11.90
2023-12-02T01:50:29.761Z,17.20
2023-12-02T01:52:57.751Z,17.43
2023-12-02T01:55:26.673Z,10.77
2023-12-02T01:57:54.739Z,12.33
2023-12-02T02:00:24.996Z,17.47
2023-12-02T02:02:53.179Z,13.33
2023-12-02T02:05:21.497Z,17.47
2023-12-02T02:07:49.577Z,14.23
2023-12-02T02:10:17.566Z,12.00
2023-12-02T02:12:45.627Z,12.37
2023-12-02T02:15:14.010Z,14.97
2023-12-02T02:17:43.642Z,15.93
2023-12-02T02:20:12.853Z,13.13
2023-12-02T02:22:42.332Z,15.77
2023-12-02T02:25:10.876Z,14.63
2023-12-02T02:27:39.070Z,12.83
2023-12-02T02:30:08.547Z,13.13
2023-12-02T02:32:37.218Z,11.87
2023-12-02T02:35:05.863Z,14.47
2023-12-02T02:37:35.145Z,11.77
2023-12-02T02:40:06.961Z,18.73
2023-12-02T02:42:35.013Z,14.10
2023-12-02T02:45:03.180Z,19.97
2023-12-02T02:47:31.404Z,15.80
2023-12-02T02:49:59.676Z,12.23
2023-12-02T02:52:28.632Z,14.57
2023-12-02T02:54:56.664Z,24.30
2023-12-02T02:57:27.101Z,17.83
2023-12-02T02:59:55.444Z,16.80
2023-12-02T03:02:23.538Z,20.27
2023-12-02T03:04:51.609Z,16.40
2023-12-02T03:07:19.901Z,16.90
2023-12-02T03:09:47.965Z,19.07
2023-12-02T03:12:16.097Z,13.20
2023-12-02T03:14:45.659Z,14.60
2023-12-02T03:17:13.962Z,14.00
2023-12-02T03:19:43.062Z,13.17
2023-12-02T03:22:11.079Z,14.13
2023-12-02T03:24:39.179Z,16.07
2023-12-02T03:27:07.600Z,19.70
2023-12-02T03:29:36.870Z,13.33
2023-12-02T03:32:07.452Z,16.53
2023-12-02T03:34:35.523Z,12.93
2023-12-02T03:37:05.219Z,15.13
2023-12-02T03:39:33.541Z,14.30
2023-12-02T03:42:01.686Z,13.83
2023-12-02T03:44:29.772Z,14.40
2023-12-02T03:46:57.932Z,18.63
2023-12-02T03:49:27.606Z,11.60
2023-12-02T03:51:55.735Z,13.60
2023-12-02T03:54:23.809Z,15.60
2023-12-02T03:56:52.163Z,12.83
2023-12-02T03:59:20.183Z,19.37
2023-12-02T04:01:48.331Z,12.00
2023-12-02T04:04:16.500Z,14.80
2023-12-02T04:06:46.163Z,20.90
2023-12-02T04:09:14.391Z,17.77
2023-12-02T04:11:42.567Z,21.50
2023-12-02T04:14:10.646Z,18.27
2023-12-02T04:16:41.998Z,22.23
2023-12-02T04:19:10.246Z,17.57
2023-12-02T04:21:38.463Z,18.13
2023-12-02T04:24:08.754Z,19.17
2023-12-02T04:26:37.916Z,17.57
2023-12-02T04:29:06.079Z,23.00
2023-12-02T04:31:34.670Z,20.13
2023-12-02T04:34:02.934Z,18.73
2023-12-02T04:36:31.967Z,13.63
2023-12-02T04:39:00.285Z,15.93
2023-12-02T04:41:29.714Z,17.90
2023-12-02T04:43:57.782Z,18.40
2023-12-02T04:46:25.825Z,16.93
2023-12-02T04:48:53.992Z,18.90
2023-12-02T04:51:22.202Z,20.97
2023-12-02T04:53:51.503Z,18.43
2023-12-02T04:56:19.588Z,21.37
2023-12-02T04:58:49.008Z,15.93
2023-12-02T05:01:17.060Z,18.53
2023-12-02T05:03:45.188Z,17.47
2023-12-02T05:06:15.450Z,22.93
2023-12-02T05:08:44.601Z,19.37
2023-12-02T05:11:18.672Z,17.37
2023-12-02T05:13:48.352Z,19.70
2023-12-02T05:16:16.461Z,21.87
2023-12-02T05:18:44.760Z,17.17
2023-12-02T05:21:12.855Z,17.37
2023-12-02T05:23:41.407Z,20.30
2023-12-02T05:26:09.924Z,15.00
2023-12-02T05:28:38.143Z,15.73
2023-12-02T05:31:08.525Z,15.00
2023-12-02T05:33:36.575Z,14.30
2023-12-02T05:36:04.958Z,18.83
2023-12-02T05:38:33.088Z,17.00
2023-12-02T05:41:01.119Z,18.63
2023-12-02T05:43:29.222Z,14.87
2023-12-02T05:45:57.349Z,15.07
2023-12-02T05:48:27.182Z,16.23
2023-12-02T05:50:55.353Z,21.10
2023-12-02T05:53:24.357Z,16.77
2023-12-02T05:55:52.408Z,14.60
2023-12-02T05:58:20.530Z,18.33
2023-12-02T06:00:49.334Z,17.03
2023-12-02T06:03:17.442Z,17.87
2023-12-02T06:05:46.896Z,18.67
2023-12-02T06:08:15.431Z,17.10
2023-12-02T06:10:43.531Z,20.87
2023-12-02T06:13:11.700Z,18.27
2023-12-02T06:15:39.777Z,15.57
2023-12-02T06:18:08.108Z,17.80
2023-12-02T06:20:36.164Z,21.23
2023-12-02T06:23:05.597Z,21.53
2023-12-02T06:25:33.683Z,19.80
2023-12-02T06:28:01.733Z,25.00
2023-12-02T06:30:29.844Z,19.27
2023-12-02T06:32:58.109Z,23.10
2023-12-02T06:35:26.333Z,20.27
2023-12-02T06:37:54.403Z,21.57
2023-12-02T06:40:23.983Z,21.80
2023-12-02T06:42:52.052Z,18.27
2023-12-02T06:45:20.198Z,26.40
2023-12-02T06:47:48.321Z,17.50
2023-12-02T06:50:16.498Z,16.43
2023-12-02T06:52:44.564Z,18.50
2023-12-02T06:57:45.585Z,20.77
2023-12-02T07:00:15.275Z,22.57
2023-12-02T07:02:43.993Z,18.40
2023-12-02T07:05:12.070Z,23.57
2023-12-02T07:07:40.085Z,22.17
2023-12-02T07:10:08.547Z,21.10
2023-12-02T07:12:36.665Z,22.00
2023-12-02T07:15:07.968Z,23.20
2023-12-02T07:17:36.236Z,21.80
2023-12-02T07:20:04.507Z,20.47
2023-12-02T07:22:32.529Z,21.33
2023-12-02T07:25:00.535Z,25.50
2023-12-02T07:27:30.142Z,23.77
2023-12-02T07:32:30.626Z,23.93
2023-12-02T07:34:58.693Z,24.13
2023-12-02T07:37:26.727Z,22.00
2023-12-02T07:39:54.823Z,24.47
2023-12-02T07:42:22.807Z,30.80
2023-12-02T07:44:51.129Z,27.40
2023-12-02T07:47:19.375Z,27.00
2023-12-02T07:49:48.928Z,27.27
2023-12-02T07:52:16.975Z,26.87
2023-12-02T07:54:45.055Z,24.03
2023-12-02T07:57:13.163Z,22.80
2023-12-02T07:59:41.515Z,23.67
2023-12-02T08:02:09.762Z,31.60
2023-12-02T08:04:37.854Z,30.40
2023-12-02T08:07:09.033Z,29.90
2023-12-02T08:09:37.216Z,29.07
2023-12-02T08:12:05.894Z,24.27
2023-12-02T08:14:33.995Z,27.30
2023-12-02T08:17:02.230Z,28.50
2023-12-02T08:19:30.426Z,25.83
2023-12-02T08:21:58.783Z,26.13
2023-12-02T08:24:28.311Z,27.70
2023-12-02T08:26:56.363Z,44.47
2023-12-02T08:29:24.420Z,37.50
2023-12-02T08:31:53.921Z,32.77
2023-12-02T08:34:23.576Z,24.93
2023-12-02T08:36:51.631Z,27.47
2023-12-02T08:39:19.658Z,26.50
2023-12-02T08:41:49.169Z,31.33
2023-12-02T08:44:18.149Z,27.90
2023-12-02T08:46:46.403Z,36.77
2023-12-02T08:49:14.582Z,27.93
2023-12-02T08:51:42.990Z,35.70
2023-12-02T08:54:11.065Z,32.80
2023-12-02T08:56:39.216Z,34.30
2023-12-02T08:59:09.450Z,30.63
2023-12-02T09:01:36.618Z,30.77
2023-12-02T09:04:04.952Z,29.80
2023-12-02T09:06:35.438Z,26.70
2023-12-02T09:09:04.475Z,36.73
2023-12-02T09:11:32.613Z,40.63
2023-12-02T09:14:00.788Z,29.03
2023-12-02T09:16:30.694Z,26.33
2023-12-02T09:18:59.043Z,30.37
2023-12-02T09:21:40.234Z,34.77
2023-12-02T09:24:34.263Z,32.20
2023-12-02T09:27:06.658Z,31.40
2023-12-02T09:29:36.814Z,28.80
2023-12-02T09:32:10.533Z,29.93
2023-12-02T09:34:58.014Z,27.97
2023-12-02T09:37:55.158Z,26.57
2023-12-02T09:40:36.631Z,27.77
2023-12-02T09:43:14.352Z,30.07
2023-12-02T09:45:46.811Z,30.87
2023-12-02T09:48:19.981Z,28.93
2023-12-02T09:50:51.796Z,26.43
2023-12-02T09:53:22.519Z,24.13
2023-12-02T09:55:52.470Z,28.87
2023-12-02T09:58:24.000Z,26.67
2023-12-02T10:00:53.122Z,26.93
2023-12-02T10:03:52.526Z,28.23
2023-12-02T10:06:35.747Z,24.47
2023-12-02T10:09:08.752Z,29.67
2023-12-02T10:11:40.498Z,24.57
2023-12-02T10:14:11.435Z,24.63
2023-12-02T10:16:40.038Z,22.23
2023-12-02T10:19:12.311Z,22.03
2023-12-02T10:21:41.957Z,22.07
2023-12-02T10:24:11.244Z,19.70
2023-12-02T10:26:43.015Z,19.73
2023-12-02T10:29:14.445Z,25.00
2023-12-02T10:31:48.180Z,26.97
2023-12-02T10:34:23.367Z,23.80
2023-12-02T10:36:51.583Z,20.47
2023-12-02T10:39:25.090Z,19.90
2023-12-02T10:41:54.356Z,21.60
2023-12-02T10:44:22.893Z,18.40
2023-12-02T10:46:50.993Z,18.57
2023-12-02T10:49:20.631Z,19.10
2023-12-02T10:52:40.355Z,16.77
2023-12-02T10:54:39.272Z,16.73
2023-12-02T10:57:08.807Z,14.50
2023-12-02T10:59:37.625Z,19.73
2023-12-02T11:02:20.089Z,19.83
2023-12-02T11:04:49.606Z,17.33
2023-12-02T11:07:17.893Z,13.40
2023-12-02T11:09:53.959Z,11.27
2023-12-02T11:12:24.656Z,16.20
2023-12-02T11:14:55.263Z,23.83
2023-12-02T11:17:27.621Z,14.73
2023-12-02T11:20:10.358Z,15.00
2023-12-02T11:22:46.890Z,15.17
2023-12-02T11:25:27.956Z,12.03
2023-12-02T11:28:00.079Z,10.93
2023-12-02T11:30:37.734Z,16.37
2023-12-02T11:33:10.954Z,11.07
2023-12-02T11:35:43.199Z,15.43
2023-12-02T11:38:16.989Z,13.10
2023-12-02T11:40:53.173Z,13.20
2023-12-02T11:43:26.891Z,16.57
2023-12-02T11:45:57.009Z,17.83
2023-12-02T11:48:28.942Z,14.67
2023-12-02T11:51:16.383Z,17.17
2023-12-02T11:53:54.512Z,14.33
2023-12-02T11:56:23.715Z,14.57
2023-12-02T11:58:53.855Z,13.77
2023-12-02T12:01:48.090Z,12.87
2023-12-02T12:04:42.046Z,12.93
2023-12-02T12:07:18.555Z,13.20
2023-12-02T12:09:50.600Z,11.57
2023-12-02T12:12:18.642Z,12.90
2023-12-02T12:14:46.659Z,17.67
2023-12-02T12:17:14.812Z,11.77
2023-12-02T12:19:43.200Z,14.07
2023-12-02T12:22:12.644Z,13.47
2023-12-02T12:24:40.789Z,12.13
2023-12-02T12:27:10.063Z,14.73
2023-12-02T12:29:38.782Z,10.73
2023-12-02T12:32:08.004Z,13.10
2023-12-02T12:34:36.206Z,18.67
2023-12-02T12:37:04.272Z,20.37
2023-12-02T12:39:34.487Z,14.60
2023-12-02T12:42:03.336Z,10.53
2023-12-02T12:44:31.937Z,13.23
2023-12-02T12:47:00.667Z,12.87
2023-12-02T12:49:28.920Z,11.03
2023-12-02T12:51:58.675Z,10.77
2023-12-02T12:54:26.850Z,12.33
2023-12-02T12:56:57.980Z,13.50
2023-12-02T12:59:28.112Z,15.73
2023-12-02T13:02:00.577Z,9.57
2023-12-02T13:04:30.479Z,11.53
2023-12-02T13:07:04.085Z,12.67
2023-12-02T13:09:33.122Z,15.33
2023-12-02T13:12:11.316Z,16.03
2023-12-02T13:14:42.863Z,13.00
2023-12-02T13:17:10.988Z,10.07
2023-12-02T13:19:39.038Z,13.40
2023-12-02T13:22:07.440Z,8.80
2023-12-02T13:24:41.310Z,8.90
2023-12-02T13:27:20.981Z,10.30
2023-12-02T13:29:50.018Z,9.77
2023-12-02T13:32:18.173Z,12.97
2023-12-02T13:34:50.826Z,11.63
2023-12-02T13:37:31.291Z,8.63
2023-12-02T13:40:01.668Z,12.80
2023-12-02T13:42:33.963Z,10.27
2023-12-02T13:45:05.714Z,13.03
2023-12-02T13:47:39.525Z,10.40
2023-12-02T13:50:08.391Z,14.37
2023-12-02T13:52:46.325Z,12.30
2023-12-02T13:55:24.041Z,10.47
2023-12-02T13:58:02.613Z,12.77
2023-12-02T14:00:33.673Z,16.70
2023-12-02T14:03:08.921Z,12.13
2023-12-02T14:05:40.808Z,22.93
2023-12-02T14:08:08.932Z,17.63
2023-12-02T14:10:36.959Z,12.23
2023-12-02T14:13:15.158Z,10.00
2023-12-02T14:15:51.220Z,11.37
2023-12-02T14:18:53.873Z,8.87
2023-12-02T14:21:28.072Z,10.10
2023-12-02T14:24:13.861Z,7.20
2023-12-02T14:26:54.565Z,6.93
2023-12-02T14:29:46.458Z,7.40
2023-12-02T14:32:22.936Z,8.50
2023-12-02T14:35:13.657Z,8.27
2023-12-02T14:37:57.208Z,5.80
2023-12-02T14:40:52.827Z,8.23
2023-12-02T14:43:31.205Z,8.60
2023-12-02T14:46:00.841Z,9.47
2023-12-02T14:48:29.536Z,10.43
2023-12-02T14:50:58.664Z,7.27
2023-12-02T14:53:30.795Z,7.50
2023-12-02T14:55:58.914Z,10.97
2023-12-02T14:58:28.258Z,11.47
2023-12-02T15:00:56.596Z,11.27
2023-12-02T15:03:31.280Z,11.57
2023-12-02T15:06:00.245Z,11.73
2023-12-02T15:08:29.029Z,10.47
2023-12-02T15:10:57.080Z,18.10
2023-12-02T15:13:25.720Z,15.17
2023-12-02T15:15:54.505Z,17.73
2023-12-02T15:18:23.074Z,20.43
2023-12-02T15:21:04.864Z,18.00
2023-12-02T15:23:39.715Z,12.53
2023-12-02T15:26:11.712Z,11.60
2023-12-02T15:28:54.164Z,12.53
2023-12-02T15:31:32.273Z,11.27
2023-12-02T15:34:02.674Z,12.27
2023-12-02T15:36:32.888Z,14.17
2023-12-02T15:39:01.553Z,8.17
2023-12-02T15:41:29.754Z,13.23
2023-12-02T15:43:58.401Z,9.67
2023-12-02T15:46:27.681Z,12.17
2023-12-02T15:48:56.144Z,11.83
2023-12-02T15:51:24.516Z,9.50
2023-12-02T15:53:53.950Z,12.67
2023-12-02T15:56:22.011Z,14.40
2023-12-02T15:58:51.601Z,12.73
2023-12-02T16:01:19.916Z,15.40
2023-12-02T16:03:48.340Z,16.43
2023-12-02T16:06:17.186Z,12.93
2023-12-02T16:08:45.342Z,18.57
2023-12-02T16:11:14.749Z,18.40
2023-12-02T16:13:46.192Z,15.10
2023-12-02T16:16:15.008Z,19.03
2023-12-02T16:18:44.231Z,12.90
2023-12-02T16:21:15.062Z,15.93
2023-12-02T16:23:44.529Z,10.60
2023-12-02T16:26:15.275Z,11.60
2023-12-02T16:28:43.331Z,9.27
2023-12-02T16:31:11.763Z,9.20
2023-12-02T16:33:39.866Z,14.70
2023-12-02T16:36:08.991Z,15.80
2023-12-02T16:38:39.601Z,14.30
2023-12-02T16:41:08.234Z,9.87
2023-12-02T16:43:38.781Z,11.93
2023-12-02T16:46:08.318Z,9.53
2023-12-02T16:48:36.854Z,12.57
2023-12-02T16:51:07.719Z,13.27
2023-12-02T16:53:37.435Z,11.47
2023-12-02T16:56:14.889Z,10.50
2023-12-02T16:58:50.674Z,12.33
2023-12-02T17:01:24.102Z,12.63
2023-12-02T17:03:52.192Z,11.07
2023-12-02T17:06:20.702Z,19.80
2023-12-02T17:08:50.686Z,13.10
2023-12-02T17:11:19.710Z,48.67
2023-12-02T17:13:55.861Z,15.30
2023-12-02T17:17:03.682Z,18.33
2023-12-02T17:19:31.528Z,20.90
2023-12-02T17:22:04.478Z,14.87
2023-12-02T17:24:35.074Z,17.73
2023-12-02T17:27:03.453Z,17.20
2023-12-02T17:29:33.500Z,16.30
2023-12-02T17:32:01.647Z,22.23
2023-12-02T17:34:30.280Z,17.43
2023-12-02T17:36:58.424Z,16.00
2023-12-02T17:39:26.640Z,18.07
2023-12-02T17:41:54.743Z,12.93
2023-12-02T17:44:23.505Z,14.83
2023-12-02T17:46:54.747Z,14.77
2023-12-02T17:49:22.873Z,18.03
2023-12-02T17:51:51.242Z,17.27
2023-12-02T17:54:19.426Z,16.03
2023-12-02T17:56:47.730Z,21.17
2023-12-02T17:59:16.219Z,15.00
2023-12-02T18:01:46.397Z,13.83
2023-12-02T18:04:16.179Z,12.53
2023-12-02T18:06:45.548Z,9.13
2023-12-02T18:09:16.245Z,11.30
2023-12-02T18:11:44.315Z,17.37
2023-12-02T18:14:12.372Z,7.80
2023-12-02T18:16:40.914Z,12.70
2023-12-02T18:19:09.716Z,15.70
2023-12-02T18:21:40.597Z,13.00
2023-12-02T18:24:09.470Z,10.93
2023-12-02T18:26:37.814Z,8.20
2023-12-02T18:29:05.930Z,16.30
2023-12-02T18:31:33.937Z,14.87
2023-12-02T18:34:02.054Z,14.50
2023-12-02T18:36:30.858Z,12.23
2023-12-02T18:39:00.326Z,17.17
2023-12-02T18:41:28.337Z,16.20
2023-12-02T18:43:58.993Z,15.20
2023-12-02T18:46:29.989Z,13.13
2023-12-02T18:48:58.744Z,13.83
2023-12-02T18:51:29.573Z,15.30
2023-12-02T18:53:57.678Z,13.03
2023-12-02T18:56:27.059Z,16.57
2023-12-02T18:58:55.819Z,15.73
2023-12-02T19:01:23.862Z,11.77
2023-12-02T19:03:55.486Z,15.50
2023-12-02T19:06:23.715Z,14.83
2023-12-02T19:08:52.706Z,11.80
2023-12-02T19:11:20.819Z,13.23
2023-12-02T19:13:50.367Z,17.50
2023-12-02T19:16:19.987Z,10.30
2023-12-02T19:18:49.709Z,12.87
2023-12-02T19:21:17.795Z,11.73
2023-12-02T19:23:48.339Z,21.70
2023-12-02T19:26:16.447Z,12.27
2023-12-02T19:28:45.455Z,11.90
2023-12-02T19:31:14.904Z,13.50
2023-12-02T19:33:43.435Z,14.20
2023-12-02T19:36:13.907Z,17.83
2023-12-02T19:38:42.484Z,13.40
2023-12-02T19:41:13.459Z,13.20
2023-12-02T19:43:41.922Z,13.17
2023-12-02T19:46:10.152Z,13.57
2023-12-02T19:48:39.611Z,14.00
2023-12-02T19:51:08.112Z,15.70
2023-12-02T19:53:37.880Z,12.47
2023-12-02T19:56:06.610Z,12.07
2023-12-02T19:58:34.696Z,14.40
2023-12-02T20:01:04.819Z,14.50
2023-12-02T20:03:32.905Z,13.37
2023-12-02T20:06:02.335Z,13.57
2023-12-02T20:08:30.420Z,13.37
2023-12-02T20:10:58.930Z,12.77
2023-12-02T20:13:30.035Z,14.80
2023-12-02T20:15:58.163Z,15.10
2023-12-02T20:18:26.271Z,10.87
2023-12-02T20:20:54.518Z,14.70
2023-12-02T20:23:24.463Z,11.80
2023-12-02T20:25:52.535Z,13.97
2023-12-02T20:28:20.544Z,10.70
2023-12-02T20:30:48.642Z,10.97
2023-12-02T20:33:16.862Z,11.43
2023-12-02T20:35:45.094Z,11.70
2023-12-02T20:38:13.298Z,10.57
2023-12-02T20:40:43.917Z,9.43
2023-12-02T20:43:12.118Z,8.03
2023-12-02T20:45:42.317Z,8.53
2023-12-02T20:48:10.449Z,9.63
2023-12-02T20:50:38.488Z,9.93
2023-12-02T20:53:06.512Z,11.27
2023-12-02T20:55:34.545Z,10.43
2023-12-02T20:58:03.936Z,12.53
2023-12-02T21:00:31.994Z,9.07
2023-12-02T21:03:00.293Z,10.63
2023-12-02T21:05:28.478Z,9.23
2023-12-02T21:07:56.546Z,8.90
2023-12-02T21:10:24.650Z,8.70
2023-12-02T21:12:54.475Z,9.63
2023-12-02T21:15:28.351Z,5.00
2023-12-02T21:17:57.058Z,6.27
2023-12-02T21:20:25.205Z,8.17
2023-12-02T21:22:55.079Z,7.17
2023-12-02T21:25:23.249Z,8.63
2023-12-02T21:27:51.588Z,8.63
2023-12-02T21:30:33.347Z,7.57
2023-12-02T21:33:02.146Z,7.33
2023-12-02T21:35:31.015Z,6.17
2023-12-02T21:37:59.544Z,6.37
2023-12-02T21:40:28.902Z,5.40
2023-12-02T21:42:57.996Z,4.63
2023-12-02T21:45:38.403Z,5.30
2023-12-02T21:48:07.112Z,6.50
2023-12-02T21:50:35.247Z,6.00
2023-12-02T21:53:03.269Z,5.47
2023-12-02T21:55:31.379Z,3.73
2023-12-02T21:57:59.564Z,6.00
2023-12-02T22:00:29.057Z,5.10
2023-12-02T22:02:58.355Z,10.30
2023-12-02T22:05:26.647Z,6.33
2023-12-02T22:08:05.496Z,6.57
2023-12-02T22:10:34.054Z,4.10
2023-12-02T22:13:02.069Z,6.40
2023-12-02T22:15:36.067Z,3.70
2023-12-02T22:18:04.534Z,6.13
2023-12-02T22:20:32.662Z,12.00
2023-12-02T22:23:00.837Z,5.93
2023-12-02T22:25:31.054Z,7.43
2023-12-02T22:28:03.997Z,5.03
2023-12-02T22:30:43.765Z,8.03
2023-12-02T22:33:12.499Z,8.43
2023-12-02T22:35:41.419Z,5.97
2023-12-02T22:38:12.803Z,4.53
2023-12-02T22:40:45.698Z,3.77
2023-12-02T22:43:21.292Z,5.23
2023-12-02T22:45:51.141Z,7.93
2023-12-02T22:48:26.116Z,4.90
2023-12-02T22:50:54.534Z,4.73
2023-12-02T22:53:31.042Z,4.97
2023-12-02T22:56:00.721Z,5.07
2023-12-02T22:58:29.070Z,7.27
2023-12-02T23:00:58.933Z,5.60
2023-12-02T23:03:28.605Z,4.10
2023-12-02T23:05:58.333Z,6.10
2023-12-02T23:08:27.154Z,8.03
2023-12-02T23:10:55.211Z,6.03
2023-12-02T23:13:52.881Z,3.43
2023-12-02T23:16:39.994Z,4.60
2023-12-02T23:19:25.293Z,3.97
2023-12-02T23:21:53.537Z,3.33
2023-12-02T23:24:22.293Z,2.97
2023-12-02T23:26:50.474Z,3.70
2023-12-02T23:29:18.523Z,2.80
2023-12-02T23:31:48.086Z,7.03
2023-12-02T23:34:16.311Z,3.97
2023-12-02T23:36:44.507Z,4.10
2023-12-02T23:39:23.026Z,2.90
2023-12-02T23:41:51.148Z,3.73
2023-12-02T23:44:32.460Z,3.90
2023-12-02T23:47:02.205Z,3.67
2023-12-02T23:49:30.337Z,5.13
2023-12-02T23:51:58.547Z,4.17
2023-12-02T23:54:26.627Z,3.47
2023-12-02T23:56:54.668Z,3.00
2023-12-02T23:59:22.756Z,3.33
